sensor_id;sensor_type;location;lat;lon;timestamp;P1;durP1;ratioP1;P2;durP2;ratioP2
41221;SDS011;26952;42.884;23.918;2023-02-15T00:00:30;16.05;;;11.77;;
41221;SDS011;26952;42.884;23.918;2023-02-15T00:02:56;17.30;;;11.93;;
41221;SDS011;26952;42.884;23.918;2023-02-15T00:05:21;15.02;;;10.18;;
41221;SDS011;26952;42.884;23.918;2023-02-15T00:07:46;16.20;;;11.57;;
41221;SDS011;26952;42.884;23.918;2023-02-15T00:10:12;15.55;;;11.63;;
41221;SDS011;26952;42.884;23.918;2023-02-15T00:12:37;15.75;;;12.10;;
41221;SDS011;26952;42.884;23.918;2023-02-15T00:15:03;15.88;;;11.45;;
41221;SDS011;26952;42.884;23.918;2023-02-15T00:17:28;18.02;;;12.00;;
41221;SDS011;26952;42.884;23.918;2023-02-15T00:19:54;15.52;;;11.95;;
41221;SDS011;26952;42.884;23.918;2023-02-15T00:22:20;18.75;;;12.18;;
41221;SDS011;26952;42.884;23.918;2023-02-15T00:24:45;18.73;;;11.38;;
41221;SDS011;26952;42.884;23.918;2023-02-15T00:27:11;14.38;;;10.98;;
41221;SDS011;26952;42.884;23.918;2023-02-15T00:29:36;14.68;;;11.63;;
41221;SDS011;26952;42.884;23.918;2023-02-15T00:32:01;17.23;;;12.25;;
41221;SDS011;26952;42.884;23.918;2023-02-15T00:34:27;17.58;;;12.45;;
41221;SDS011;26952;42.884;23.918;2023-02-15T00:36:53;16.35;;;11.85;;
41221;SDS011;26952;42.884;23.918;2023-02-15T00:39:18;14.80;;;11.80;;
41221;SDS011;26952;42.884;23.918;2023-02-15T00:41:44;82.50;;;63.75;;
41221;SDS011;26952;42.884;23.918;2023-02-15T00:44:10;25.23;;;17.90;;
41221;SDS011;26952;42.884;23.918;2023-02-15T00:46:36;17.15;;;12.75;;
41221;SDS011;26952;42.884;23.918;2023-02-15T00:49:02;17.08;;;12.45;;
41221;SDS011;26952;42.884;23.918;2023-02-15T00:51:28;15.65;;;12.65;;
41221;SDS011;26952;42.884;23.918;2023-02-15T00:53:54;22.80;;;15.27;;
41221;SDS011;26952;42.884;23.918;2023-02-15T00:56:20;18.00;;;13.38;;
41221;SDS011;26952;42.884;23.918;2023-02-15T00:58:45;25.25;;;18.70;;
41221;SDS011;26952;42.884;23.918;2023-02-15T01:01:12;24.10;;;18.27;;
41221;SDS011;26952;42.884;23.918;2023-02-15T01:03:40;22.30;;;17.13;;
41221;SDS011;26952;42.884;23.918;2023-02-15T01:06:08;22.63;;;16.15;;
41221;SDS011;26952;42.884;23.918;2023-02-15T01:08:35;21.90;;;17.20;;
41221;SDS011;26952;42.884;23.918;2023-02-15T01:11:04;21.95;;;14.55;;
41221;SDS011;26952;42.884;23.918;2023-02-15T01:13:40;17.63;;;12.95;;
41221;SDS011;26952;42.884;23.918;2023-02-15T01:16:06;19.02;;;12.82;;
41221;SDS011;26952;42.884;23.918;2023-02-15T01:18:32;16.80;;;12.45;;
41221;SDS011;26952;42.884;23.918;2023-02-15T01:20:59;15.90;;;11.13;;
41221;SDS011;26952;42.884;23.918;2023-02-15T01:23:24;16.90;;;11.57;;
41221;SDS011;26952;42.884;23.918;2023-02-15T01:25:50;17.13;;;11.90;;
41221;SDS011;26952;42.884;23.918;2023-02-15T01:28:15;23.73;;;15.73;;
41221;SDS011;26952;42.884;23.918;2023-02-15T01:30:41;24.42;;;15.80;;
41221;SDS011;26952;42.884;23.918;2023-02-15T01:33:06;27.33;;;19.20;;
41221;SDS011;26952;42.884;23.918;2023-02-15T01:35:32;26.38;;;17.25;;
41221;SDS011;26952;42.884;23.918;2023-02-15T01:37:57;22.77;;;16.05;;
41221;SDS011;26952;42.884;23.918;2023-02-15T01:40:23;23.50;;;16.02;;
41221;SDS011;26952;42.884;23.918;2023-02-15T01:42:53;33.35;;;23.88;;
41221;SDS011;26952;42.884;23.918;2023-02-15T01:47:52;33.78;;;21.40;;
41221;SDS011;26952;42.884;23.918;2023-02-15T01:52:56;32.88;;;22.50;;
41221;SDS011;26952;42.884;23.918;2023-02-15T01:55:27;31.80;;;23.67;;
41221;SDS011;26952;42.884;23.918;2023-02-15T01:58:01;29.73;;;21.85;;
41221;SDS011;26952;42.884;23.918;2023-02-15T02:00:27;31.33;;;22.95;;
41221;SDS011;26952;42.884;23.918;2023-02-15T02:02:53;29.67;;;21.15;;
41221;SDS011;26952;42.884;23.918;2023-02-15T02:05:22;29.42;;;21.63;;
41221;SDS011;26952;42.884;23.918;2023-02-15T02:07:48;28.77;;;22.17;;
41221;SDS011;26952;42.884;23.918;2023-02-15T02:10:18;29.00;;;22.20;;
41221;SDS011;26952;42.884;23.918;2023-02-15T02:12:45;21.67;;;16.58;;
41221;SDS011;26952;42.884;23.918;2023-02-15T02:15:13;21.38;;;16.73;;
41221;SDS011;26952;42.884;23.918;2023-02-15T02:17:46;23.63;;;18.38;;
41221;SDS011;26952;42.884;23.918;2023-02-15T02:42:10;23.15;;;16.52;;
41221;SDS011;26952;42.884;23.918;2023-02-15T02:44:54;21.40;;;14.98;;
41221;SDS011;26952;42.884;23.918;2023-02-15T02:47:44;23.70;;;15.43;;
41221;SDS011;26952;42.884;23.918;2023-02-15T02:50:15;21.17;;;13.85;;
41221;SDS011;26952;42.884;23.918;2023-02-15T02:52:46;20.27;;;13.07;;
41221;SDS011;26952;42.884;23.918;2023-02-15T03:00:43;19.65;;;13.43;;
41221;SDS011;26952;42.884;23.918;2023-02-15T03:03:12;21.50;;;13.85;;
41221;SDS011;26952;42.884;23.918;2023-02-15T03:05:44;20.45;;;13.02;;
41221;SDS011;26952;42.884;23.918;2023-02-15T03:08:13;21.13;;;13.38;;
41221;SDS011;26952;42.884;23.918;2023-02-15T03:10:46;23.15;;;14.45;;
41221;SDS011;26952;42.884;23.918;2023-02-15T03:13:13;23.67;;;15.38;;
41221;SDS011;26952;42.884;23.918;2023-02-15T03:15:39;26.52;;;16.08;;
41221;SDS011;26952;42.884;23.918;2023-02-15T03:18:28;26.85;;;16.70;;
41221;SDS011;26952;42.884;23.918;2023-02-15T03:21:00;26.23;;;16.25;;
41221;SDS011;26952;42.884;23.918;2023-02-15T03:23:28;21.70;;;14.85;;
41221;SDS011;26952;42.884;23.918;2023-02-15T03:25:56;25.50;;;15.95;;
41221;SDS011;26952;42.884;23.918;2023-02-15T03:28:27;25.35;;;15.65;;
41221;SDS011;26952;42.884;23.918;2023-02-15T03:30:57;26.08;;;15.75;;
41221;SDS011;26952;42.884;23.918;2023-02-15T03:33:26;22.73;;;14.90;;
41221;SDS011;26952;42.884;23.918;2023-02-15T03:35:55;23.20;;;15.27;;
41221;SDS011;26952;42.884;23.918;2023-02-15T03:38:43;23.15;;;14.95;;
41221;SDS011;26952;42.884;23.918;2023-02-15T03:41:32;25.27;;;14.15;;
41221;SDS011;26952;42.884;23.918;2023-02-15T03:46:45;28.00;;;15.40;;
41221;SDS011;26952;42.884;23.918;2023-02-15T03:49:24;23.60;;;15.10;;
41221;SDS011;26952;42.884;23.918;2023-02-15T03:51:56;22.45;;;14.55;;
41221;SDS011;26952;42.884;23.918;2023-02-15T03:54:26;23.25;;;14.88;;
41221;SDS011;26952;42.884;23.918;2023-02-15T03:57:15;23.55;;;14.80;;
41221;SDS011;26952;42.884;23.918;2023-02-15T04:00:03;26.15;;;15.05;;
41221;SDS011;26952;42.884;23.918;2023-02-15T04:05:33;23.52;;;15.20;;
41221;SDS011;26952;42.884;23.918;2023-02-15T04:07:59;22.80;;;14.77;;
41221;SDS011;26952;42.884;23.918;2023-02-15T04:10:24;23.17;;;14.82;;
41221;SDS011;26952;42.884;23.918;2023-02-15T04:13:08;23.98;;;13.45;;
41221;SDS011;26952;42.884;23.918;2023-02-15T04:15:33;19.67;;;14.65;;
41221;SDS011;26952;42.884;23.918;2023-02-15T04:18:17;21.33;;;14.00;;
41221;SDS011;26952;42.884;23.918;2023-02-15T04:20:46;26.23;;;14.65;;
41221;SDS011;26952;42.884;23.918;2023-02-15T04:23:30;23.33;;;14.68;;
41221;SDS011;26952;42.884;23.918;2023-02-15T04:26:15;22.73;;;14.50;;
41221;SDS011;26952;42.884;23.918;2023-02-15T04:28:40;24.48;;;15.23;;
41221;SDS011;26952;42.884;23.918;2023-02-15T04:31:05;24.88;;;15.20;;
41221;SDS011;26952;42.884;23.918;2023-02-15T04:33:31;22.48;;;14.77;;
41221;SDS011;26952;42.884;23.918;2023-02-15T04:35:56;28.50;;;15.55;;
41221;SDS011;26952;42.884;23.918;2023-02-15T04:38:22;21.55;;;13.50;;
41221;SDS011;26952;42.884;23.918;2023-02-15T04:40:51;21.73;;;14.45;;
41221;SDS011;26952;42.884;23.918;2023-02-15T04:43:20;24.73;;;14.38;;
41221;SDS011;26952;42.884;23.918;2023-02-15T04:45:49;22.20;;;14.45;;
41221;SDS011;26952;42.884;23.918;2023-02-15T04:48:15;21.17;;;14.45;;
41221;SDS011;26952;42.884;23.918;2023-02-15T04:50:41;21.67;;;14.02;;
41221;SDS011;26952;42.884;23.918;2023-02-15T04:53:07;22.60;;;14.95;;
41221;SDS011;26952;42.884;23.918;2023-02-15T04:55:32;22.92;;;14.57;;
41221;SDS011;26952;42.884;23.918;2023-02-15T04:57:57;24.33;;;15.20;;
41221;SDS011;26952;42.884;23.918;2023-02-15T05:00:23;22.48;;;14.23;;
41221;SDS011;26952;42.884;23.918;2023-02-15T05:02:48;21.67;;;15.15;;
41221;SDS011;26952;42.884;23.918;2023-02-15T05:05:14;21.67;;;14.40;;
41221;SDS011;26952;42.884;23.918;2023-02-15T05:07:40;24.10;;;14.88;;
41221;SDS011;26952;42.884;23.918;2023-02-15T05:10:05;21.35;;;13.90;;
41221;SDS011;26952;42.884;23.918;2023-02-15T05:12:31;47.38;;;28.00;;
41221;SDS011;26952;42.884;23.918;2023-02-15T05:14:56;43.42;;;27.02;;
41221;SDS011;26952;42.884;23.918;2023-02-15T05:17:22;52.00;;;30.52;;
41221;SDS011;26952;42.884;23.918;2023-02-15T05:19:47;44.38;;;27.95;;
41221;SDS011;26952;42.884;23.918;2023-02-15T05:22:12;47.92;;;27.15;;
41221;SDS011;26952;42.884;23.918;2023-02-15T05:24:38;36.20;;;23.02;;
41221;SDS011;26952;42.884;23.918;2023-02-15T05:27:22;50.72;;;32.15;;
41221;SDS011;26952;42.884;23.918;2023-02-15T05:30:06;56.10;;;34.42;;
41221;SDS011;26952;42.884;23.918;2023-02-15T05:32:36;58.78;;;35.83;;
41221;SDS011;26952;42.884;23.918;2023-02-15T05:35:03;57.45;;;34.08;;
41221;SDS011;26952;42.884;23.918;2023-02-15T05:37:28;60.65;;;39.20;;
41221;SDS011;26952;42.884;23.918;2023-02-15T05:39:54;59.53;;;39.60;;
41221;SDS011;26952;42.884;23.918;2023-02-15T05:42:19;55.80;;;36.22;;
41221;SDS011;26952;42.884;23.918;2023-02-15T05:44:44;59.35;;;36.50;;
41221;SDS011;26952;42.884;23.918;2023-02-15T05:47:10;63.95;;;38.67;;
41221;SDS011;26952;42.884;23.918;2023-02-15T05:49:35;59.28;;;36.08;;
41221;SDS011;26952;42.884;23.918;2023-02-15T05:52:01;65.80;;;41.05;;
41221;SDS011;26952;42.884;23.918;2023-02-15T05:54:27;66.38;;;40.60;;
41221;SDS011;26952;42.884;23.918;2023-02-15T05:56:53;71.78;;;41.92;;
41221;SDS011;26952;42.884;23.918;2023-02-15T05:59:18;68.80;;;40.47;;
41221;SDS011;26952;42.884;23.918;2023-02-15T06:01:43;65.40;;;39.78;;
41221;SDS011;26952;42.884;23.918;2023-02-15T06:04:09;66.88;;;40.83;;
41221;SDS011;26952;42.884;23.918;2023-02-15T06:06:34;67.35;;;41.45;;
41221;SDS011;26952;42.884;23.918;2023-02-15T06:08:59;66.85;;;40.83;;
41221;SDS011;26952;42.884;23.918;2023-02-15T06:11:25;61.88;;;39.45;;
41221;SDS011;26952;42.884;23.918;2023-02-15T06:13:50;70.97;;;42.70;;
41221;SDS011;26952;42.884;23.918;2023-02-15T06:16:16;65.97;;;41.88;;
41221;SDS011;26952;42.884;23.918;2023-02-15T06:18:41;68.43;;;40.63;;
41221;SDS011;26952;42.884;23.918;2023-02-15T06:21:07;59.85;;;38.25;;
41221;SDS011;26952;42.884;23.918;2023-02-15T06:23:33;55.97;;;36.95;;
41221;SDS011;26952;42.884;23.918;2023-02-15T06:25:58;62.92;;;39.85;;
41221;SDS011;26952;42.884;23.918;2023-02-15T06:28:24;63.33;;;40.38;;
41221;SDS011;26952;42.884;23.918;2023-02-15T06:30:50;61.10;;;41.05;;
41221;SDS011;26952;42.884;23.918;2023-02-15T06:33:16;29.40;;;18.52;;
41221;SDS011;26952;42.884;23.918;2023-02-15T06:35:41;49.58;;;33.85;;
41221;SDS011;26952;42.884;23.918;2023-02-15T06:38:06;49.47;;;33.70;;
41221;SDS011;26952;42.884;23.918;2023-02-15T06:40:32;65.88;;;40.85;;
41221;SDS011;26952;42.884;23.918;2023-02-15T06:42:57;58.45;;;39.25;;
41221;SDS011;26952;42.884;23.918;2023-02-15T06:45:23;59.53;;;38.20;;
41221;SDS011;26952;42.884;23.918;2023-02-15T06:47:48;58.20;;;39.10;;
41221;SDS011;26952;42.884;23.918;2023-02-15T06:50:13;42.15;;;27.45;;
41221;SDS011;26952;42.884;23.918;2023-02-15T06:52:39;54.55;;;28.40;;
41221;SDS011;26952;42.884;23.918;2023-02-15T06:55:04;28.38;;;18.48;;
41221;SDS011;26952;42.884;23.918;2023-02-15T06:57:31;22.65;;;14.20;;
41221;SDS011;26952;42.884;23.918;2023-02-15T06:59:57;88.40;;;53.40;;
41221;SDS011;26952;42.884;23.918;2023-02-15T07:02:23;25.65;;;17.20;;
41221;SDS011;26952;42.884;23.918;2023-02-15T07:04:48;22.45;;;15.48;;
41221;SDS011;26952;42.884;23.918;2023-02-15T07:07:14;19.75;;;13.00;;
41221;SDS011;26952;42.884;23.918;2023-02-15T07:09:39;20.33;;;13.10;;
41221;SDS011;26952;42.884;23.918;2023-02-15T07:12:05;21.08;;;12.82;;
41221;SDS011;26952;42.884;23.918;2023-02-15T07:14:49;18.48;;;12.95;;
41221;SDS011;26952;42.884;23.918;2023-02-15T07:17:15;20.15;;;12.02;;
41221;SDS011;26952;42.884;23.918;2023-02-15T07:19:40;18.00;;;12.40;;
41221;SDS011;26952;42.884;23.918;2023-02-15T07:22:05;18.20;;;13.27;;
41221;SDS011;26952;42.884;23.918;2023-02-15T07:24:31;19.88;;;14.65;;
41221;SDS011;26952;42.884;23.918;2023-02-15T07:26:56;17.35;;;12.57;;
41221;SDS011;26952;42.884;23.918;2023-02-15T07:29:22;19.13;;;13.90;;
41221;SDS011;26952;42.884;23.918;2023-02-15T07:31:48;16.98;;;12.70;;
41221;SDS011;26952;42.884;23.918;2023-02-15T07:34:13;19.73;;;14.25;;
41221;SDS011;26952;42.884;23.918;2023-02-15T07:36:39;63.60;;;40.97;;
41221;SDS011;26952;42.884;23.918;2023-02-15T07:39:04;90.20;;;57.67;;
41221;SDS011;26952;42.884;23.918;2023-02-15T07:41:30;97.63;;;62.80;;
41221;SDS011;26952;42.884;23.918;2023-02-15T07:43:55;82.75;;;51.55;;
41221;SDS011;26952;42.884;23.918;2023-02-15T07:46:20;74.88;;;46.78;;
41221;SDS011;26952;42.884;23.918;2023-02-15T07:48:46;90.80;;;58.20;;
41221;SDS011;26952;42.884;23.918;2023-02-15T07:51:13;99.72;;;65.03;;
41221;SDS011;26952;42.884;23.918;2023-02-15T07:53:39;88.63;;;61.45;;
41221;SDS011;26952;42.884;23.918;2023-02-15T07:56:09;118.28;;;77.97;;
41221;SDS011;26952;42.884;23.918;2023-02-15T07:58:37;108.40;;;73.88;;
41221;SDS011;26952;42.884;23.918;2023-02-15T08:01:18;86.35;;;58.72;;
41221;SDS011;26952;42.884;23.918;2023-02-15T08:03:46;67.88;;;48.15;;
41221;SDS011;26952;42.884;23.918;2023-02-15T08:06:12;94.00;;;64.00;;
41221;SDS011;26952;42.884;23.918;2023-02-15T08:08:38;61.47;;;45.13;;
41221;SDS011;26952;42.884;23.918;2023-02-15T08:11:05;55.92;;;44.13;;
41221;SDS011;26952;42.884;23.918;2023-02-15T08:14:28;63.40;;;45.00;;
41221;SDS011;26952;42.884;23.918;2023-02-15T08:16:48;72.10;;;51.33;;
41221;SDS011;26952;42.884;23.918;2023-02-15T08:19:20;67.75;;;52.25;;
41221;SDS011;26952;42.884;23.918;2023-02-15T08:21:49;66.78;;;51.13;;
41221;SDS011;26952;42.884;23.918;2023-02-15T08:24:17;64.93;;;50.78;;
41221;SDS011;26952;42.884;23.918;2023-02-15T08:26:44;66.43;;;50.10;;
41221;SDS011;26952;42.884;23.918;2023-02-15T08:29:11;64.35;;;46.67;;
41221;SDS011;26952;42.884;23.918;2023-02-15T08:31:38;63.55;;;47.20;;
41221;SDS011;26952;42.884;23.918;2023-02-15T08:34:06;98.50;;;70.85;;
41221;SDS011;26952;42.884;23.918;2023-02-15T08:36:32;63.75;;;48.33;;
41221;SDS011;26952;42.884;23.918;2023-02-15T08:38:58;61.97;;;50.10;;
41221;SDS011;26952;42.884;23.918;2023-02-15T08:41:25;64.00;;;49.35;;
41221;SDS011;26952;42.884;23.918;2023-02-15T08:43:54;50.30;;;38.50;;
41221;SDS011;26952;42.884;23.918;2023-02-15T08:46:22;53.85;;;41.67;;
41221;SDS011;26952;42.884;23.918;2023-02-15T08:48:49;42.85;;;32.85;;
41221;SDS011;26952;42.884;23.918;2023-02-15T08:51:15;34.95;;;26.67;;
41221;SDS011;26952;42.884;23.918;2023-02-15T08:53:44;87.97;;;46.13;;
41221;SDS011;26952;42.884;23.918;2023-02-15T08:56:11;35.95;;;26.05;;
41221;SDS011;26952;42.884;23.918;2023-02-15T08:58:37;120.32;;;66.65;;
41221;SDS011;26952;42.884;23.918;2023-02-15T09:01:36;37.05;;;29.23;;
41221;SDS011;26952;42.884;23.918;2023-02-15T09:03:57;31.63;;;26.20;;
41221;SDS011;26952;42.884;23.918;2023-02-15T09:06:24;30.88;;;25.83;;
41221;SDS011;26952;42.884;23.918;2023-02-15T09:08:50;31.73;;;26.73;;
41221;SDS011;26952;42.884;23.918;2023-02-15T09:11:20;40.92;;;33.10;;
41221;SDS011;26952;42.884;23.918;2023-02-15T09:13:57;25.00;;;21.23;;
41221;SDS011;26952;42.884;23.918;2023-02-15T09:16:28;28.50;;;25.33;;
41221;SDS011;26952;42.884;23.918;2023-02-15T09:18:56;22.38;;;19.63;;
41221;SDS011;26952;42.884;23.918;2023-02-15T09:21:23;22.13;;;16.77;;
41221;SDS011;26952;42.884;23.918;2023-02-15T09:23:50;17.20;;;14.68;;
41221;SDS011;26952;42.884;23.918;2023-02-15T09:26:18;20.67;;;17.77;;
41221;SDS011;26952;42.884;23.918;2023-02-15T09:28:45;23.80;;;19.95;;
41221;SDS011;26952;42.884;23.918;2023-02-15T09:31:13;24.38;;;17.90;;
41221;SDS011;26952;42.884;23.918;2023-02-15T09:33:40;21.75;;;17.33;;
41221;SDS011;26952;42.884;23.918;2023-02-15T09:36:14;21.58;;;15.35;;
41221;SDS011;26952;42.884;23.918;2023-02-15T09:38:42;18.10;;;16.05;;
41221;SDS011;26952;42.884;23.918;2023-02-15T09:41:29;15.10;;;12.43;;
41221;SDS011;26952;42.884;23.918;2023-02-15T09:55:02;15.55;;;11.38;;
41221;SDS011;26952;42.884;23.918;2023-02-15T10:02:38;13.63;;;10.70;;
41221;SDS011;26952;42.884;23.918;2023-02-15T10:11:06;14.30;;;12.50;;
41221;SDS011;26952;42.884;23.918;2023-02-15T10:22:23;13.93;;;11.60;;
41221;SDS011;26952;42.884;23.918;2023-02-15T10:27:26;20.10;;;15.77;;
41221;SDS011;26952;42.884;23.918;2023-02-15T10:38:28;19.92;;;18.02;;
41221;SDS011;26952;42.884;23.918;2023-02-15T10:41:09;19.00;;;16.98;;
41221;SDS011;26952;42.884;23.918;2023-02-15T10:43:41;18.45;;;16.45;;
41221;SDS011;26952;42.884;23.918;2023-02-15T10:50:03;15.70;;;14.15;;
41221;SDS011;26952;42.884;23.918;2023-02-15T10:52:21;17.25;;;14.70;;
41221;SDS011;26952;42.884;23.918;2023-02-15T10:55:14;17.17;;;13.70;;
41221;SDS011;26952;42.884;23.918;2023-02-15T10:57:50;16.45;;;14.68;;
41221;SDS011;26952;42.884;23.918;2023-02-15T11:03:56;15.95;;;14.30;;
41221;SDS011;26952;42.884;23.918;2023-02-15T11:06:31;18.40;;;16.48;;
41221;SDS011;26952;42.884;23.918;2023-02-15T11:09:02;17.83;;;15.95;;
41221;SDS011;26952;42.884;23.918;2023-02-15T11:11:34;16.13;;;14.20;;
41221;SDS011;26952;42.884;23.918;2023-02-15T11:14:14;16.25;;;13.93;;
41221;SDS011;26952;42.884;23.918;2023-02-15T11:16:45;16.08;;;13.85;;
41221;SDS011;26952;42.884;23.918;2023-02-15T11:21:54;17.85;;;14.70;;
41221;SDS011;26952;42.884;23.918;2023-02-15T11:24:24;17.60;;;14.68;;
41221;SDS011;26952;42.884;23.918;2023-02-15T11:26:57;19.48;;;15.52;;
41221;SDS011;26952;42.884;23.918;2023-02-15T11:29:41;16.83;;;13.85;;
41221;SDS011;26952;42.884;23.918;2023-02-15T11:32:19;17.83;;;12.65;;
41221;SDS011;26952;42.884;23.918;2023-02-15T11:34:56;17.38;;;14.38;;
41221;SDS011;26952;42.884;23.918;2023-02-15T11:37:34;17.63;;;14.60;;
41221;SDS011;26952;42.884;23.918;2023-02-15T11:40:01;16.42;;;14.02;;
41221;SDS011;26952;42.884;23.918;2023-02-15T11:42:38;16.95;;;14.75;;
41221;SDS011;26952;42.884;23.918;2023-02-15T11:47:59;17.35;;;12.88;;
41221;SDS011;26952;42.884;23.918;2023-02-15T11:50:27;15.75;;;12.48;;
41221;SDS011;26952;42.884;23.918;2023-02-15T11:53:02;17.30;;;15.32;;
41221;SDS011;26952;42.884;23.918;2023-02-15T11:55:32;16.40;;;14.43;;
41221;SDS011;26952;42.884;23.918;2023-02-15T11:58:16;16.10;;;13.55;;
41221;SDS011;26952;42.884;23.918;2023-02-15T12:06:35;12.95;;;11.38;;
41221;SDS011;26952;42.884;23.918;2023-02-15T12:09:10;14.30;;;12.80;;
41221;SDS011;26952;42.884;23.918;2023-02-15T12:11:45;17.08;;;14.57;;
41221;SDS011;26952;42.884;23.918;2023-02-15T12:14:11;13.30;;;11.57;;
41221;SDS011;26952;42.884;23.918;2023-02-15T12:19:50;16.17;;;13.13;;
41221;SDS011;26952;42.884;23.918;2023-02-15T12:22:02;16.60;;;12.13;;
41221;SDS011;26952;42.884;23.918;2023-02-15T12:26:56;23.08;;;12.13;;
41221;SDS011;26952;42.884;23.918;2023-02-15T12:29:35;14.15;;;10.60;;
41221;SDS011;26952;42.884;23.918;2023-02-15T12:32:09;13.77;;;11.07;;
41221;SDS011;26952;42.884;23.918;2023-02-15T12:34:43;14.85;;;10.88;;
41221;SDS011;26952;42.884;23.918;2023-02-15T12:37:23;15.73;;;12.30;;
41221;SDS011;26952;42.884;23.918;2023-02-15T12:39:56;14.82;;;11.35;;
41221;SDS011;26952;42.884;23.918;2023-02-15T12:42:23;13.40;;;11.25;;
41221;SDS011;26952;42.884;23.918;2023-02-15T12:45:03;14.88;;;12.55;;
41221;SDS011;26952;42.884;23.918;2023-02-15T12:47:46;15.55;;;13.23;;
41221;SDS011;26952;42.884;23.918;2023-02-15T12:50:32;17.35;;;11.88;;
41221;SDS011;26952;42.884;23.918;2023-02-15T12:53:14;17.35;;;12.80;;
41221;SDS011;26952;42.884;23.918;2023-02-15T12:55:58;20.05;;;13.52;;
41221;SDS011;26952;42.884;23.918;2023-02-15T12:58:26;16.85;;;12.20;;
41221;SDS011;26952;42.884;23.918;2023-02-15T13:01:28;12.80;;;10.73;;
41221;SDS011;26952;42.884;23.918;2023-02-15T13:06:25;12.35;;;10.13;;
41221;SDS011;26952;42.884;23.918;2023-02-15T13:08:57;15.13;;;10.95;;
41221;SDS011;26952;42.884;23.918;2023-02-15T13:11:31;12.55;;;9.98;;
41221;SDS011;26952;42.884;23.918;2023-02-15T13:14:00;15.68;;;11.57;;
41221;SDS011;26952;42.884;23.918;2023-02-15T13:16:29;16.08;;;11.25;;
41221;SDS011;26952;42.884;23.918;2023-02-15T13:18:57;13.05;;;11.38;;
41221;SDS011;26952;42.884;23.918;2023-02-15T13:21:30;13.30;;;10.85;;
41221;SDS011;26952;42.884;23.918;2023-02-15T13:24:45;14.15;;;12.63;;
41221;SDS011;26952;42.884;23.918;2023-02-15T13:26:59;15.65;;;13.18;;
41221;SDS011;26952;42.884;23.918;2023-02-15T13:29:27;14.63;;;12.70;;
41221;SDS011;26952;42.884;23.918;2023-02-15T13:31:55;14.88;;;13.38;;
41221;SDS011;26952;42.884;23.918;2023-02-15T13:34:25;15.50;;;13.95;;
41221;SDS011;26952;42.884;23.918;2023-02-15T13:39:49;16.73;;;12.50;;
41221;SDS011;26952;42.884;23.918;2023-02-15T13:42:27;17.27;;;12.65;;
41221;SDS011;26952;42.884;23.918;2023-02-15T13:48:11;10.27;;;9.02;;
41221;SDS011;26952;42.884;23.918;2023-02-15T14:10:10;11.23;;;10.13;;
41221;SDS011;26952;42.884;23.918;2023-02-15T14:12:58;14.27;;;12.98;;
41221;SDS011;26952;42.884;23.918;2023-02-15T14:18:12;14.45;;;12.90;;
41221;SDS011;26952;42.884;23.918;2023-02-15T14:23:33;11.77;;;9.93;;
41221;SDS011;26952;42.884;23.918;2023-02-15T14:26:17;12.73;;;9.73;;
41221;SDS011;26952;42.884;23.918;2023-02-15T14:31:32;12.65;;;10.70;;
41221;SDS011;26952;42.884;23.918;2023-02-15T14:34:03;12.85;;;11.07;;
41221;SDS011;26952;42.884;23.918;2023-02-15T14:36:29;12.02;;;10.73;;
41221;SDS011;26952;42.884;23.918;2023-02-15T14:39:16;10.95;;;9.32;;
41221;SDS011;26952;42.884;23.918;2023-02-15T14:42:25;12.13;;;8.50;;
41221;SDS011;26952;42.884;23.918;2023-02-15T14:45:05;11.18;;;8.45;;
41221;SDS011;26952;42.884;23.918;2023-02-15T14:47:47;11.30;;;8.38;;
41221;SDS011;26952;42.884;23.918;2023-02-15T14:56:05;13.57;;;9.18;;
41221;SDS011;26952;42.884;23.918;2023-02-15T14:59:00;13.40;;;9.82;;
41221;SDS011;26952;42.884;23.918;2023-02-15T15:01:57;12.85;;;10.05;;
41221;SDS011;26952;42.884;23.918;2023-02-15T15:15:12;13.27;;;11.02;;
41221;SDS011;26952;42.884;23.918;2023-02-15T15:20:40;13.15;;;10.45;;
41221;SDS011;26952;42.884;23.918;2023-02-15T15:34:03;13.95;;;10.88;;
41221;SDS011;26952;42.884;23.918;2023-02-15T15:37:10;14.10;;;10.88;;
41221;SDS011;26952;42.884;23.918;2023-02-15T15:42:13;15.05;;;10.20;;
41221;SDS011;26952;42.884;23.918;2023-02-15T15:50:31;12.45;;;8.82;;
41221;SDS011;26952;42.884;23.918;2023-02-15T15:52:58;14.32;;;9.23;;
41221;SDS011;26952;42.884;23.918;2023-02-15T15:55:25;14.05;;;9.57;;
41221;SDS011;26952;42.884;23.918;2023-02-15T16:03:15;13.55;;;10.05;;
41221;SDS011;26952;42.884;23.918;2023-02-15T16:05:48;14.35;;;10.40;;
41221;SDS011;26952;42.884;23.918;2023-02-15T16:08:35;15.73;;;10.32;;
41221;SDS011;26952;42.884;23.918;2023-02-15T16:11:16;13.15;;;9.98;;
41221;SDS011;26952;42.884;23.918;2023-02-15T16:13:52;13.60;;;9.85;;
41221;SDS011;26952;42.884;23.918;2023-02-15T16:16:22;13.15;;;9.70;;
41221;SDS011;26952;42.884;23.918;2023-02-15T16:18:50;13.05;;;9.95;;
41221;SDS011;26952;42.884;23.918;2023-02-15T16:21:21;13.25;;;10.70;;
41221;SDS011;26952;42.884;23.918;2023-02-15T16:29:17;14.13;;;10.73;;
41221;SDS011;26952;42.884;23.918;2023-02-15T16:32:01;14.75;;;12.02;;
41221;SDS011;26952;42.884;23.918;2023-02-15T16:34:54;14.32;;;11.38;;
41221;SDS011;26952;42.884;23.918;2023-02-15T16:37:22;16.08;;;12.45;;
41221;SDS011;26952;42.884;23.918;2023-02-15T16:42:17;16.90;;;11.85;;
41221;SDS011;26952;42.884;23.918;2023-02-15T16:44:44;15.50;;;11.18;;
41221;SDS011;26952;42.884;23.918;2023-02-15T16:47:15;16.90;;;11.73;;
41221;SDS011;26952;42.884;23.918;2023-02-15T16:49:45;17.55;;;11.45;;
41221;SDS011;26952;42.884;23.918;2023-02-15T16:52:15;15.43;;;11.68;;
41221;SDS011;26952;42.884;23.918;2023-02-15T16:54:52;16.25;;;12.02;;
41221;SDS011;26952;42.884;23.918;2023-02-15T16:57:22;14.57;;;12.10;;
41221;SDS011;26952;42.884;23.918;2023-02-15T16:59:52;17.15;;;14.10;;
41221;SDS011;26952;42.884;23.918;2023-02-15T17:02:22;18.35;;;12.90;;
41221;SDS011;26952;42.884;23.918;2023-02-15T17:05:25;16.98;;;14.77;;
41221;SDS011;26952;42.884;23.918;2023-02-15T17:10:36;13.93;;;11.30;;
41221;SDS011;26952;42.884;23.918;2023-02-15T17:13:10;14.68;;;10.77;;
41221;SDS011;26952;42.884;23.918;2023-02-15T17:15:43;16.08;;;10.45;;
41221;SDS011;26952;42.884;23.918;2023-02-15T17:18:30;17.58;;;11.60;;
41221;SDS011;26952;42.884;23.918;2023-02-15T17:21:01;17.30;;;12.43;;
41221;SDS011;26952;42.884;23.918;2023-02-15T17:26:21;20.10;;;13.32;;
41221;SDS011;26952;42.884;23.918;2023-02-15T17:28:50;14.75;;;11.20;;
41221;SDS011;26952;42.884;23.918;2023-02-15T17:31:19;16.70;;;11.88;;
41221;SDS011;26952;42.884;23.918;2023-02-15T17:33:45;18.30;;;12.57;;
41221;SDS011;26952;42.884;23.918;2023-02-15T17:36:12;19.05;;;13.20;;
41221;SDS011;26952;42.884;23.918;2023-02-15T17:38:59;15.37;;;11.80;;
41221;SDS011;26952;42.884;23.918;2023-02-15T17:41:26;17.15;;;12.60;;
41221;SDS011;26952;42.884;23.918;2023-02-15T17:43:52;15.05;;;11.23;;
41221;SDS011;26952;42.884;23.918;2023-02-15T17:46:18;19.13;;;13.05;;